Time;durP1;ratioP1;P1;durP2;ratioP2;P2;SDS_P1;SDS_P2;PMS_P1;PMS_P2;Temp;Humidity;BMP_temperature;BMP_pressure;BME280_temperature;BME280_humidity;BME280_pressure;Samples;Min_cycle;Max_cycle;Signal;HPM_P1;HPM_P2
2022/06/17 00:01:41;;;;;;;9.15;7.03;;;;;;;15.62;82.03;98834.46;1742962;82;25667;-61
2022/06/17 00:04:08;;;;;;;10.25;7.00;;;;;;;15.55;81.90;98830.09;1743304;82;25677;-58
2022/06/17 00:06:46;;;;;;;9.75;7.20;;;;;;;15.61;81.93;98841.70;1743089;82;25780;-59
2022/06/17 00:09:16;;;;;;;11.10;7.72;;;;;;;15.60;81.82;98840.11;1742861;82;25692;-60
2022/06/17 00:11:42;;;;;;;10.03;7.70;;;;;;;15.54;82.00;98838.94;1743687;82;27458;-58
2022/06/17 00:14:16;;;;;;;9.93;7.30;;;;;;;15.55;81.90;98839.75;1743431;82;25488;-61
2022/06/17 00:16:44;;;;;;;10.93;7.08;;;;;;;15.46;81.78;98832.14;1743465;82;25652;-60
2022/06/17 00:19:11;;;;;;;12.20;7.97;;;;;;;15.42;81.99;98836.97;1742984;82;25796;-61
2022/06/17 00:21:45;;;;;;;11.85;7.58;;;;;;;15.45;82.04;98838.23;1743487;82;25571;-57
2022/06/17 00:24:22;;;;;;;12.45;7.42;;;;;;;15.36;81.83;98841.09;1743328;82;27372;-57
2022/06/17 00:26:49;;;;;;;10.45;8.23;;;;;;;15.32;81.81;98837.97;1741376;82;26130;-58
2022/06/17 00:29:19;;;;;;;12.68;7.45;;;;;;;15.29;81.86;98843.61;1743431;82;25836;-57
2022/06/17 00:31:46;;;;;;;13.03;8.40;;;;;;;15.21;82.13;98843.11;1743380;82;26627;-57
2022/06/17 00:34:12;;;;;;;11.80;7.78;;;;;;;15.15;82.34;98849.43;1743069;82;25408;-57
2022/06/17 00:36:40;;;;;;;12.75;8.08;;;;;;;15.03;83.60;98851.58;1743080;82;27391;-57
2022/06/17 00:39:17;;;;;;;12.98;8.08;;;;;;;14.80;84.08;98849.19;1743247;82;26205;-58
2022/06/17 00:41:48;;;;;;;11.10;8.18;;;;;;;14.80;84.08;98849.19;1743121;82;25659;-58
2022/06/17 00:44:44;;;;;;;12.20;8.90;;;;;;;14.73;84.23;98848.86;1743343;82;26510;-60
2022/06/17 00:47:35;;;;;;;12.45;8.68;;;;;;;14.71;84.18;98847.03;1743407;82;25601;-57
2022/06/17 00:50:15;;;;;;;13.50;9.50;;;;;;;14.79;84.42;98850.30;1743139;82;27463;-57
2022/06/17 00:53:09;;;;;;;12.80;9.20;;;;;;;14.86;84.37;98844.26;1742494;82;25701;-57
2022/06/17 00:55:56;;;;;;;12.80;8.18;;;;;;;14.93;84.31;98843.95;1742855;82;25630;-61
2022/06/17 00:58:32;;;;;;;15.63;9.30;;;;;;;14.91;83.94;98843.47;1743431;82;25704;-58
2022/06/17 01:01:02;;;;;;;12.93;8.83;;;;;;;15.00;84.17;98839.24;1743307;82;25734;-58
2022/06/17 01:03:35;;;;;;;12.47;8.73;;;;;;;15.05;84.09;98836.84;1742989;82;27386;-57
2022/06/17 01:06:11;;;;;;;12.78;8.65;;;;;;;15.05;83.68;98837.66;1743305;82;25850;-57
2022/06/17 01:11:31;;;;;;;13.32;8.55;;;;;;;15.06;83.66;98837.10;1745472;82;25386;-58
2022/06/17 01:14:00;;;;;;;12.13;8.68;;;;;;;15.03;83.04;98845.47;1745781;82;25672;-58
2022/06/17 01:16:31;;;;;;;14.93;8.73;;;;;;;14.93;83.13;98843.13;1745664;82;27518;-57
2022/06/17 01:19:02;;;;;;;12.60;9.15;;;;;;;14.95;83.63;98831.75;1745681;82;25992;-57
2022/06/17 01:21:34;;;;;;;13.70;9.73;;;;;;;15.04;83.40;98835.24;1742526;82;25622;-57
2022/06/17 01:24:00;;;;;;;16.30;10.60;;;;;;;15.01;83.30;98834.54;1743694;82;25637;-57
2022/06/17 01:26:27;;;;;;;22.65;11.25;;;;;;;14.97;83.97;98842.68;1745968;82;25401;-58
2022/06/17 01:28:53;;;;;;;18.60;11.25;;;;;;;14.92;84.41;98847.86;1745616;82;26834;-59
2022/06/17 01:31:21;;;;;;;16.02;10.60;;;;;;;14.93;84.39;98858.30;1745673;82;25973;-57
2022/06/17 01:33:47;;;;;;;17.57;11.73;;;;;;;14.93;84.36;98863.83;1745522;82;25463;-59
2022/06/17 01:36:21;;;;;;;19.75;11.97;;;;;;;14.89;84.41;98856.00;1745543;82;25752;-60
2022/06/17 01:38:52;;;;;;;21.48;11.38;;;;;;;14.91;84.42;98860.62;1745938;82;25638;-60
2022/06/17 01:41:23;;;;;;;21.05;11.95;;;;;;;14.89;84.69;98862.89;1745669;82;28171;-62
2022/06/17 01:43:57;;;;;;;19.12;11.97;;;;;;;14.89;84.68;98869.23;1744301;82;26066;-58
2022/06/17 01:46:36;;;;;;;17.15;12.00;;;;;;;14.89;84.59;98863.71;1745681;81;25420;-57
2022/06/17 01:49:10;;;;;;;15.23;11.10;;;;;;;14.90;84.32;98861.74;1745564;82;25769;-58
2022/06/17 01:51:44;;;;;;;15.45;10.88;;;;;;;14.85;84.04;98873.00;1745475;82;25743;-57
2022/06/17 01:54:16;;;;;;;14.95;10.43;;;;;;;14.84;84.08;98881.84;1744660;82;27436;-57
2022/06/17 01:56:46;;;;;;;14.18;10.32;;;;;;;14.84;84.08;98881.84;1745684;82;25631;-57
2022/06/17 01:59:32;;;;;;;13.83;10.15;;;;;;;14.87;83.95;98885.87;1745656;82;25749;-58
2022/06/17 02:02:02;;;;;;;13.62;9.68;;;;;;;14.81;83.15;98883.89;1745521;82;26486;-58
2022/06/17 02:04:38;;;;;;;14.20;9.83;;;;;;;14.81;83.15;98883.89;1745939;82;25604;-59
2022/06/17 02:07:16;;;;;;;13.15;10.05;;;;;;;14.77;83.32;98890.61;1745795;82;27520;-57
2022/06/17 02:09:42;;;;;;;13.78;9.40;;;;;;;14.75;83.58;98897.06;1709801;83;26033;-60
2022/06/17 02:12:10;;;;;;;13.15;9.43;;;;;;;14.74;83.60;98905.08;1709864;83;26061;-61
2022/06/17 02:14:36;;;;;;;14.33;9.40;;;;;;;14.73;83.28;98902.66;1709897;83;25798;-57
2022/06/17 02:17:05;;;;;;;13.50;9.38;;;;;;;14.64;83.35;98902.72;1709709;83;25798;-58
2022/06/17 02:19:35;;;;;;;12.47;9.28;;;;;;;14.55;83.46;98898.66;1709756;83;27565;-60
2022/06/17 02:22:13;;;;;;;11.05;8.55;;;;;;;14.45;83.49;98905.34;1709832;83;25505;-62
2022/06/17 02:24:41;;;;;;;11.20;8.33;;;;;;;14.38;83.92;98906.45;1708633;83;25679;-59
2022/06/17 02:27:11;;;;;;;12.80;8.08;;;;;;;14.32;84.52;98906.41;1709842;83;25694;-58
2022/06/17 02:29:40;;;;;;;10.75;8.68;;;;;;;14.28;85.34;98907.66;1709910;83;25613;-57
2022/06/17 02:32:10;;;;;;;12.63;8.70;;;;;;;14.25;84.94;98911.08;1709741;83;27310;-62
2022/06/17 02:34:50;;;;;;;10.80;8.13;;;;;;;14.23;86.07;98923.81;1709595;83;25942;-57
2022/06/17 02:37:18;;;;;;;10.85;9.03;;;;;;;14.23;86.26;98922.44;1709888;83;25740;-57
2022/06/17 02:39:48;;;;;;;13.22;8.75;;;;;;;14.23;86.26;98922.44;1709868;83;25926;-57
2022/06/17 02:42:30;;;;;;;14.83;9.68;;;;;;;14.23;85.95;98914.17;1710015;83;25698;-56
2022/06/17 02:45:01;;;;;;;15.50;9.88;;;;;;;14.30;86.07;98924.66;1708680;83;28377;-57
2022/06/17 02:47:28;;;;;;;14.55;10.32;;;;;;;14.32;86.43;98921.00;1709625;83;25808;-57
2022/06/17 02:49:55;;;;;;;14.20;10.82;;;;;;;14.32;86.66;98927.08;1709753;83;25805;-57
2022/06/17 02:52:29;;;;;;;14.78;11.03;;;;;;;14.32;86.01;98925.70;1709379;83;25816;-57
2022/06/17 02:55:00;;;;;;;14.55;11.10;;;;;;;14.30;85.89;98928.23;1709787;83;25623;-60
2022/06/17 02:57:28;;;;;;;;;;;;;;;14.32;86.08;98925.14;1712485;83;27381;-58
2022/06/17 03:00:19;;;;;;;15.30;11.30;;;;;;;14.35;86.11;98930.55;1709631;83;25489;-58
2022/06/17 03:02:47;;;;;;;;;;;;;;;14.33;85.79;98932.27;1712079;83;25674;-59
2022/06/17 03:05:21;;;;;;;15.55;10.40;;;;;;;14.32;86.20;98927.90;1709786;83;25710;-57
2022/06/17 03:07:48;;;;;;;13.22;10.48;;;;;;;14.33;86.04;98931.47;1709302;82;25633;-58
2022/06/17 03:10:31;;;;;;;14.38;10.43;;;;;;;14.37;86.08;98929.10;1737141;82;27411;-58
2022/06/17 03:13:12;;;;;;;16.25;10.55;;;;;;;14.37;86.08;98929.10;1740418;82;25465;-60
2022/06/17 03:15:41;;;;;;;13.53;9.63;;;;;;;14.46;86.00;98940.08;1741211;82;25624;-59
2022/06/17 03:18:07;;;;;;;18.50;10.75;;;;;;;14.53;86.00;98946.42;1740956;82;25869;-62
2022/06/17 03:20:36;;;;;;;11.35;9.85;;;;;;;14.53;86.00;98946.42;1740881;82;25733;-61
2022/06/17 03:23:13;;;;;;;13.78;9.78;;;;;;;14.50;85.99;98953.42;1740846;82;27536;-57
2022/06/17 03:25:56;;;;;;;12.53;10.32;;;;;;;14.54;85.84;98964.61;1744685;81;25544;-58
2022/06/17 03:28:30;;;;;;;16.25;10.32;;;;;;;14.54;85.84;98964.61;1758368;81;25750;-58
2022/06/17 03:31:26;;;;;;;10.78;8.93;;;;;;;14.55;85.79;98964.28;1758471;81;25773;-58
2022/06/17 03:34:02;;;;;;;12.65;9.53;;;;;;;14.43;85.76;98955.31;1739593;82;25434;-58
2022/06/17 03:36:40;;;;;;;13.80;8.95;;;;;;;14.49;85.68;98968.36;1740826;82;27421;-59
2022/06/17 03:39:14;;;;;;;13.25;8.98;;;;;;;14.47;85.64;98972.57;1740546;82;25664;-57
2022/06/17 03:41:58;;;;;;;10.55;8.88;;;;;;;14.40;85.55;98968.97;1740936;82;25723;-62
2022/06/17 03:44:34;;;;;;;11.88;9.30;;;;;;;14.42;85.33;98970.25;1741489;81;25906;-60
2022/06/17 03:47:15;;;;;;;10.20;8.15;;;;;;;14.42;85.29;98987.35;1739187;81;25742;-57
2022/06/17 03:49:57;;;;;;;10.38;7.92;;;;;;;14.36;85.11;98983.98;1734252;82;27419;-59
2022/06/17 03:52:49;;;;;;;10.85;7.62;;;;;;;14.31;85.06;98981.42;1741090;81;25450;-58
2022/06/17 03:55:19;;;;;;;8.70;7.55;;;;;;;14.30;84.90;98993.57;1666471;85;25680;-58
2022/06/17 03:57:51;;;;;;;13.20;8.10;;;;;;;14.24;85.41;98999.02;1740985;82;25735;-58
2022/06/17 04:00:37;;;;;;;9.60;7.03;;;;;;;14.21;85.64;99011.53;1741100;82;25647;-59
2022/06/17 04:03:12;;;;;;;11.18;7.67;;;;;;;14.25;86.34;99013.86;1740927;82;27411;-58
2022/06/17 04:05:46;;;;;;;9.43;6.90;;;;;;;14.37;86.27;99017.32;1737864;82;25739;-58
2022/06/17 04:08:24;;;;;;;9.25;6.87;;;;;;;14.49;86.19;99018.55;1741109;81;25439;-58
2022/06/17 04:10:58;;;;;;;9.25;6.40;;;;;;;14.50;85.61;99008.58;1745894;81;25552;-57
2022/06/17 04:13:37;;;;;;;7.60;6.35;;;;;;;14.67;85.09;99014.58;1745666;82;25645;-62
2022/06/17 04:16:24;;;;;;;7.62;6.40;;;;;;;14.79;84.96;99022.17;1745226;82;25846;-60
2022/06/17 04:18:50;;;;;;;10.20;6.33;;;;;;;14.95;84.19;99027.11;1741857;82;25452;-59
2022/06/17 04:21:16;;;;;;;8.20;5.92;;;;;;;14.95;84.19;99027.11;1745773;82;25401;-57
2022/06/17 04:23:47;;;;;;;9.15;6.53;;;;;;;15.15;83.78;99032.42;1745648;82;26562;-58
2022/06/17 04:26:29;;;;;;;6.80;5.62;;;;;;;15.25;83.22;99034.53;1746041;82;25578;-57
2022/06/17 04:29:00;;;;;;;7.17;5.50;;;;;;;15.42;83.51;99040.50;1709947;83;27614;-62
2022/06/17 04:31:29;;;;;;;7.95;5.72;;;;;;;15.47;82.00;99038.92;1709541;83;27179;-63
2022/06/17 04:34:15;;;;;;;8.28;5.72;;;;;;;15.54;82.44;99050.23;1709856;83;25665;-63
2022/06/17 04:36:48;;;;;;;8.13;5.75;;;;;;;15.67;82.49;99059.96;1685064;85;26214;-64
2022/06/17 04:39:41;;;;;;;7.33;5.80;;;;;;;15.74;81.93;99060.22;1720567;83;25688;-63
2022/06/17 04:42:12;;;;;;;6.72;5.12;;;;;;;15.80;81.15;99066.34;1719957;83;27549;-57
2022/06/17 04:44:40;;;;;;;7.08;5.20;;;;;;;15.76;80.52;99066.22;1719189;83;25855;-62
2022/06/17 04:47:13;;;;;;;8.80;5.87;;;;;;;15.84;80.96;99067.30;1720400;83;25895;-64
2022/06/17 04:49:56;;;;;;;6.78;5.40;;;;;;;15.98;81.06;99077.27;1720456;83;26559;-64
2022/06/17 04:52:30;;;;;;;8.68;5.37;;;;;;;16.10;80.76;99075.94;1719508;83;25514;-64
2022/06/17 04:54:59;;;;;;;7.12;4.55;;;;;;;16.22;80.29;99075.72;1720018;83;27474;-63
2022/06/17 04:57:30;;;;;;;6.75;4.87;;;;;;;16.36;79.15;99079.56;1719969;83;25674;-61
2022/06/17 05:00:02;;;;;;;6.03;4.80;;;;;;;16.51;79.38;99079.47;1720359;83;25517;-64
2022/06/17 05:02:32;;;;;;;8.08;5.00;;;;;;;16.68;79.07;99078.46;1714159;83;25941;-64
2022/06/17 05:05:03;;;;;;;5.65;4.12;;;;;;;16.86;78.60;99086.52;1720375;83;25513;-65
2022/06/17 05:07:40;;;;;;;6.75;4.35;;;;;;;17.00;77.81;99088.95;1720139;83;28425;-62
2022/06/17 05:10:12;;;;;;;4.83;4.33;;;;;;;17.08;77.11;99082.53;1719480;83;25663;-63
2022/06/17 05:12:47;;;;;;;5.05;3.98;;;;;;;17.21;77.13;99081.14;1725053;82;25731;-64
2022/06/17 05:15:17;;;;;;;8.10;4.22;;;;;;;17.30;75.32;99077.66;1745766;82;25749;-61
2022/06/17 05:17:44;;;;;;;5.53;4.00;;;;;;;17.32;75.30;99080.09;1710377;83;25575;-63
2022/06/17 05:20:16;;;;;;;7.85;4.62;;;;;;;17.38;74.91;99074.50;1709969;83;28261;-60
2022/06/17 05:23:00;;;;;;;4.67;4.10;;;;;;;17.44;74.94;99081.42;1709021;83;25506;-62
2022/06/17 05:25:30;;;;;;;4.75;4.28;;;;;;;17.36;73.73;99081.78;1709735;83;25625;-60
2022/06/17 05:27:56;;;;;;;;;;;;;;;17.52;73.95;99076.33;1712569;83;25944;-62
2022/06/17 05:30:23;;;;;;;5.92;3.75;;;;;;;17.60;74.81;99075.15;1710276;83;25737;-57
2022/06/17 05:32:54;;;;;;;4.20;3.80;;;;;;;17.67;74.30;99073.97;1710070;83;27500;-58
2022/06/17 05:35:22;;;;;;;6.40;4.20;;;;;;;17.72;73.34;99075.11;1709832;83;27140;-57
2022/06/17 05:37:49;;;;;;;4.10;3.70;;;;;;;17.79;72.15;99080.06;1745958;82;25654;-58
2022/06/17 05:40:17;;;;;;;5.00;3.80;;;;;;;17.78;71.75;99085.36;1745986;82;26502;-57
2022/06/17 05:42:46;;;;;;;4.15;3.72;;;;;;;17.84;72.26;99075.64;1745817;81;25806;-57
2022/06/17 05:45:20;;;;;;;4.35;3.65;;;;;;;17.86;72.28;99080.83;1710085;83;27375;-57
2022/06/17 05:47:47;;;;;;;6.55;3.85;;;;;;;17.92;71.87;99082.19;1745222;82;25438;-57
2022/06/17 05:50:15;;;;;;;4.62;3.87;;;;;;;18.01;72.22;99087.01;1745565;81;25699;-58
2022/06/17 05:53:01;;;;;;;8.55;4.45;;;;;;;18.11;72.34;99093.23;1746009;81;25700;-57
2022/06/17 05:55:32;;;;;;;5.83;3.75;;;;;;;18.21;72.32;99094.11;1745948;82;25676;-57
2022/06/17 05:57:58;;;;;;;;;;;;;;;18.21;71.33;99102.42;1712782;83;27448;-57
2022/06/17 06:00:26;;;;;;;6.00;3.50;;;;;;;18.28;72.13;99094.89;1710026;83;25678;-63
2022/06/17 06:02:59;;;;;;;4.97;3.60;;;;;;;18.30;71.04;99099.48;1710097;83;26114;-63
2022/06/17 06:05:30;;;;;;;5.12;4.00;;;;;;;18.49;71.29;99102.97;1709969;83;25770;-60
2022/06/17 06:07:57;;;;;;;5.80;4.10;;;;;;;18.56;70.64;99099.55;1744398;82;25643;-57
2022/06/17 06:10:25;;;;;;;5.40;3.33;;;;;;;18.66;70.05;99101.83;1741271;82;27461;-58
2022/06/17 06:13:03;;;;;;;4.62;3.37;;;;;;;18.70;69.75;99106.06;1742850;82;25676;-59
2022/06/17 06:15:39;;;;;;;6.00;4.08;;;;;;;18.77;67.82;99113.77;1742605;82;25735;-57
2022/06/17 06:18:08;;;;;;;9.18;4.17;;;;;;;18.74;69.36;99108.33;1707143;84;25482;-56
2022/06/17 06:20:35;;;;;;;4.20;3.60;;;;;;;18.84;69.85;99113.95;1743529;82;25725;-57
2022/06/17 06:23:03;;;;;;;5.22;4.17;;;;;;;18.96;69.25;99110.83;1743053;82;27479;-57
2022/06/17 06:25:30;;;;;;;5.58;4.10;;;;;;;19.01;68.17;99111.39;1707066;83;25475;-57
2022/06/17 06:27:57;;;;;;;6.80;3.90;;;;;;;19.14;68.83;99122.43;1743325;82;25604;-57
2022/06/17 06:30:28;;;;;;;4.62;3.40;;;;;;;19.20;68.59;99116.79;1743160;82;25630;-62
2022/06/17 06:32:58;;;;;;;5.12;3.80;;;;;;;19.41;68.40;99116.50;1743378;82;25662;-60
2022/06/17 06:35:29;;;;;;;4.03;3.52;;;;;;;19.56;66.16;99111.25;1707593;83;27995;-61
2022/06/17 06:37:56;;;;;;;5.92;3.87;;;;;;;19.69;66.27;99112.72;1707615;83;25625;-64
2022/06/17 06:40:23;;;;;;;6.37;4.45;;;;;;;19.91;65.60;99110.97;1743087;82;25677;-61
2022/06/17 06:42:52;;;;;;;4.40;4.00;;;;;;;20.02;64.59;99119.56;1742882;82;25945;-64
2022/06/17 06:45:29;;;;;;;8.80;4.00;;;;;;;19.91;63.23;99123.48;1743338;82;25678;-60
2022/06/17 06:48:00;;;;;;;5.53;3.40;;;;;;;19.75;64.18;99120.18;1741597;82;27503;-63
2022/06/17 06:50:30;;;;;;;4.78;3.50;;;;;;;19.86;64.84;99123.79;1747105;82;25824;-63
2022/06/17 06:52:57;;;;;;;3.47;3.08;;;;;;;20.07;65.02;99123.45;1743542;82;25678;-62
2022/06/17 06:55:24;;;;;;;6.90;3.60;;;;;;;20.22;64.24;99127.31;1742901;82;25716;-61
2022/06/17 06:58:01;;;;;;;3.75;3.37;;;;;;;20.29;63.25;99133.02;1707167;83;25749;-57
2022/06/17 07:00:41;;;;;;;4.15;3.77;;;;;;;20.45;63.15;99122.37;1707312;84;29474;-57
2022/06/17 07:03:08;;;;;;;5.65;3.37;;;;;;;20.50;63.89;99115.69;1743370;82;25448;-58
2022/06/17 07:05:39;;;;;;;5.08;3.83;;;;;;;20.54;61.84;99115.98;1743028;82;25523;-57
2022/06/17 07:08:07;;;;;;;;;;;;;;;20.70;60.92;99120.62;1724300;82;25715;-58
2022/06/17 07:10:35;;;;;;;6.50;3.33;;;;;;;20.91;62.43;99123.00;1739223;82;25380;-57
2022/06/17 07:13:05;;;;;;;5.58;3.90;;;;;;;21.06;61.46;99112.06;1743294;82;27481;-57
2022/06/17 07:15:33;;;;;;;4.90;3.90;;;;;;;21.24;59.52;99121.31;1743344;82;25751;-58
2022/06/17 07:18:04;;;;;;;3.85;3.47;;;;;;;21.27;60.19;99113.59;1743050;82;25224;-57
2022/06/17 07:20:42;;;;;;;5.72;3.60;;;;;;;21.64;60.73;99119.86;1743322;82;25694;-58
2022/06/17 07:23:20;;;;;;;4.12;3.35;;;;;;;21.90;59.08;99114.63;1742965;82;25416;-57
2022/06/17 07:25:48;;;;;;;3.87;3.40;;;;;;;22.04;59.24;99120.98;1743338;82;27473;-59
2022/06/17 07:28:19;;;;;;;5.00;3.85;;;;;;;21.98;57.56;99126.09;1742973;82;25649;-57
2022/06/17 07:30:49;;;;;;;5.05;3.47;;;;;;;21.85;59.32;99124.74;1743487;82;25791;-65
2022/06/17 07:33:18;;;;;;;6.47;3.93;;;;;;;21.94;59.12;99133.63;1707903;83;25752;-63
2022/06/17 07:35:47;;;;;;;5.92;3.67;;;;;;;22.37;59.78;99132.52;1743452;82;25718;-63
2022/06/17 07:41:04;;;;;;;4.42;3.47;;;;;;;22.77;58.77;99135.72;1742945;82;25452;-57
2022/06/17 07:43:31;;;;;;;5.78;3.60;;;;;;;22.76;56.58;99135.49;1743606;82;25404;-58
2022/06/17 07:45:58;;;;;;;4.03;3.62;;;;;;;22.74;56.56;99139.28;1743633;82;26237;-60
2022/06/17 07:48:24;;;;;;;4.15;3.52;;;;;;;22.60;57.08;99139.36;1743198;82;25642;-59
2022/06/17 07:50:52;;;;;;;6.00;3.98;;;;;;;22.49;55.39;99132.83;1743044;82;27332;-63
2022/06/17 07:53:20;;;;;;;5.33;3.77;;;;;;;22.40;57.41;99137.33;1743185;82;25629;-62
2022/06/17 07:55:46;;;;;;;4.60;4.00;;;;;;;22.26;55.87;99139.37;1707327;83;25420;-64
2022/06/17 07:58:14;;;;;;;4.72;3.77;;;;;;;21.94;56.53;99135.81;1743395;82;25767;-65
2022/06/17 08:00:44;;;;;;;6.37;4.33;;;;;;;21.81;56.39;99142.82;1743080;82;25598;-61
2022/06/17 08:03:13;;;;;;;5.58;4.00;;;;;;;21.87;57.98;99141.31;1743434;82;27395;-64
2022/06/17 08:05:44;;;;;;;6.12;3.77;;;;;;;22.31;55.98;99137.64;1739584;81;25901;-59
2022/06/17 08:08:12;;;;;;;4.10;3.70;;;;;;;22.75;57.97;99156.25;1707566;83;25646;-64
2022/06/17 08:10:39;;;;;;;7.37;3.95;;;;;;;22.99;55.12;99152.06;1743005;82;25688;-61
2022/06/17 08:13:08;;;;;;;4.55;3.95;;;;;;;22.98;54.43;99153.27;1743258;82;25451;-61
2022/06/17 08:15:36;;;;;;;4.60;4.00;;;;;;;22.84;54.35;99156.73;1743391;82;28306;-63
2022/06/17 08:18:03;;;;;;;5.70;3.87;;;;;;;22.67;55.26;99153.39;1743351;82;25452;-60
2022/06/17 08:20:34;;;;;;;4.42;3.70;;;;;;;22.44;53.98;99157.13;1743334;82;25698;-65
2022/06/17 08:23:02;;;;;;;4.75;3.95;;;;;;;22.29;53.49;99156.17;1743201;82;25746;-57
2022/06/17 08:25:31;;;;;;;4.37;3.85;;;;;;;22.25;54.14;99162.28;1743307;82;25638;-59
2022/06/17 08:28:02;;;;;;;4.22;3.55;;;;;;;22.16;55.23;99164.56;1743109;82;27480;-60
2022/06/17 08:30:35;;;;;;;3.95;3.62;;;;;;;22.13;54.14;99163.34;1707119;83;25582;-59
2022/06/17 08:33:03;;;;;;;3.70;3.30;;;;;;;22.15;53.52;99164.36;1707352;84;25733;-58
2022/06/17 08:35:34;;;;;;;3.67;3.37;;;;;;;22.05;55.37;99168.03;1707539;84;25701;-58
2022/06/17 08:38:18;;;;;;;3.60;3.30;;;;;;;22.25;54.46;99168.48;1743221;82;25663;-58
2022/06/17 08:40:56;;;;;;;4.17;2.90;;;;;;;22.51;54.33;99180.12;1743028;82;27400;-60
2022/06/17 08:43:46;;;;;;;3.77;3.00;;;;;;;22.58;53.13;99179.43;1747118;80;25633;-58
2022/06/17 08:46:33;;;;;;;5.22;3.20;;;;;;;22.56;51.99;99177.58;1769817;80;25656;-58
2022/06/17 08:49:36;;;;;;;3.60;2.83;;;;;;;22.46;51.42;99186.65;1774258;80;26322;-58
2022/06/17 08:52:43;;;;;;;3.40;2.40;;;;;;;22.17;52.23;99192.09;1773633;80;25644;-58
2022/06/17 08:55:31;;;;;;;3.98;2.60;;;;;;;22.03;53.07;99194.72;1772758;80;28359;-58
2022/06/17 08:58:23;;;;;;;5.33;2.40;;;;;;;22.29;54.33;99196.65;1736581;82;25597;-59
2022/06/17 09:01:12;;;;;;;3.70;2.00;;;;;;;22.51;51.81;99195.48;1773715;80;25633;-63
2022/06/17 09:04:12;;;;;;;4.75;2.08;;;;;;;22.75;51.17;99201.76;1730646;82;25668;-63
2022/06/17 09:06:53;;;;;;;2.77;2.10;;;;;;;23.17;50.70;99203.92;1726631;82;25916;-58
2022/06/17 09:09:55;;;;;;;2.47;2.17;;;;;;;23.66;48.40;99208.09;1730578;82;27428;-58
2022/06/17 09:12:36;;;;;;;4.45;2.30;;;;;;;23.69;47.75;99212.13;1730320;82;25841;-63
2022/06/17 09:15:23;;;;;;;3.15;2.05;;;;;;;23.61;47.60;99213.27;1729480;82;25507;-65
2022/06/17 09:18:00;;;;;;;2.40;1.92;;;;;;;23.97;48.90;99222.48;1729261;81;25748;-64
2022/06/17 09:20:43;;;;;;;2.67;1.90;;;;;;;24.43;48.00;99222.49;1715697;82;25719;-61
2022/06/17 09:23:15;;;;;;;3.08;1.70;;;;;;;24.78;45.73;99218.81;1730529;82;27580;-64
2022/06/17 09:25:45;;;;;;;1.65;1.55;;;;;;;24.76;46.57;99226.20;1730561;82;25752;-65
2022/06/17 09:28:28;;;;;;;1.67;1.50;;;;;;;24.67;46.34;99227.97;1730746;82;25803;-64
2022/06/17 09:31:02;;;;;;;1.70;1.60;;;;;;;24.50;46.48;99227.33;1730358;82;25747;-63
2022/06/17 09:33:46;;;;;;;2.62;1.80;;;;;;;24.50;45.77;99221.73;1728932;82;25644;-60
2022/06/17 09:36:20;;;;;;;2.20;1.90;;;;;;;24.28;46.71;99224.44;1729562;82;29471;-62
2022/06/17 09:39:14;;;;;;;2.33;1.75;;;;;;;24.03;46.76;99221.70;1765547;80;25707;-65
2022/06/17 09:41:51;;;;;;;2.85;1.60;;;;;;;23.84;45.95;99219.20;1773703;80;25748;-64
2022/06/17 09:44:31;;;;;;;1.98;1.52;;;;;;;24.07;46.50;99221.73;1773672;80;25798;-59
2022/06/17 09:47:06;;;;;;;2.40;1.37;;;;;;;24.22;44.90;99219.02;1698024;84;25432;-66
2022/06/17 09:49:47;;;;;;;1.62;1.50;;;;;;;24.17;45.25;99218.79;1773714;80;27376;-58
2022/06/17 09:52:17;;;;;;;2.75;1.47;;;;;;;24.10;45.91;99226.55;1736501;82;25459;-59
2022/06/17 09:54:55;;;;;;;2.05;1.50;;;;;;;24.10;45.46;99223.75;1737046;82;25660;-58
2022/06/17 09:57:27;;;;;;;4.37;1.70;;;;;;;23.86;46.48;99235.80;1736664;82;25739;-56
2022/06/17 10:00:11;;;;;;;4.67;1.40;;;;;;;23.59;44.93;99232.42;1736847;82;25643;-56
2022/06/17 10:03:18;;;;;;;2.35;1.30;;;;;;;23.35;45.63;99227.63;1737192;82;27468;-58
2022/06/17 10:06:05;;;;;;;1.57;1.20;;;;;;;23.51;45.43;99231.56;1737020;82;25922;-58
2022/06/17 10:08:49;;;;;;;1.60;1.10;;;;;;;24.33;46.13;99232.48;1736619;82;25412;-59
2022/06/17 10:11:24;;;;;;;2.98;1.20;;;;;;;24.76;45.30;99232.41;1736655;82;25808;-58
2022/06/17 10:14:14;;;;;;;1.98;1.20;;;;;;;24.65;44.57;99237.39;1736671;82;25720;-58
2022/06/17 10:20:07;;;;;;;1.50;1.00;;;;;;;24.51;40.73;99229.73;1647643;87;25674;-59
2022/06/17 10:22:45;;;;;;;1.40;1.17;;;;;;;25.02;43.20;99231.28;1647757;87;25635;-60
2022/06/17 10:25:32;;;;;;;1.47;1.07;;;;;;;25.55;42.15;99236.48;1647782;87;25655;-59
2022/06/17 10:28:36;;;;;;;1.52;1.10;;;;;;;25.25;40.24;99233.48;1647975;87;25876;-59
2022/06/17 10:31:10;;;;;;;1.17;1.00;;;;;;;25.52;40.47;99240.09;1646464;87;27701;-58
2022/06/17 10:33:39;;;;;;;1.47;1.10;;;;;;;25.53;37.60;99229.86;1646581;86;25923;-62
2022/06/17 10:36:07;;;;;;;2.17;1.10;;;;;;;25.32;38.43;99234.88;1648125;87;25733;-58
2022/06/17 10:38:38;;;;;;;1.27;0.80;;;;;;;25.39;40.98;99236.28;1647851;87;25818;-58
2022/06/17 10:41:07;;;;;;;2.22;0.90;;;;;;;25.38;38.12;99236.09;1647691;87;25760;-61
2022/06/17 10:43:38;;;;;;;2.20;0.90;;;;;;;25.46;38.96;99236.08;1647908;87;27814;-61
2022/06/17 10:46:05;;;;;;;1.27;0.75;;;;;;;26.12;38.44;99229.77;1648183;87;25850;-57
2022/06/17 10:48:43;;;;;;;4.35;0.90;;;;;;;26.85;37.54;99233.05;1648052;87;25746;-61
2022/06/17 10:51:10;;;;;;;4.75;0.98;;;;;;;27.15;35.68;99229.46;1647974;87;26658;-60
2022/06/17 10:53:47;;;;;;;2.37;0.72;;;;;;;26.64;36.04;99238.19;1676757;82;25495;-60
2022/06/17 10:56:21;;;;;;;0.70;0.70;;;;;;;26.50;37.29;99233.44;1736771;82;27476;-63
2022/06/17 10:59:06;;;;;;;1.92;0.80;;;;;;;26.81;35.98;99237.30;1736873;82;25590;-64
2022/06/17 11:01:56;;;;;;;1.02;0.80;;;;;;;27.20;35.66;99233.84;1736625;82;25472;-64
2022/06/17 11:04:30;;;;;;;1.15;0.70;;;;;;;27.33;35.35;99220.88;1736771;82;25464;-63
2022/06/17 11:07:08;;;;;;;1.12;0.80;;;;;;;27.11;35.94;99218.85;1736813;82;25851;-63
2022/06/17 11:09:48;;;;;;;1.20;0.70;;;;;;;27.06;37.24;99215.87;1736998;82;28137;-62
2022/06/17 11:12:35;;;;;;;1.42;0.75;;;;;;;27.34;37.54;99222.46;1674537;85;25727;-63
2022/06/17 11:15:05;;;;;;;1.42;0.68;;;;;;;27.98;36.37;99238.37;1658950;86;25769;-58
2022/06/17 11:17:42;;;;;;;0.70;0.70;;;;;;;28.52;35.07;99229.91;1624148;87;25689;-64
2022/06/17 11:20:30;;;;;;;0.82;0.60;;;;;;;28.92;34.92;99236.36;1674836;85;25729;-59
2022/06/17 11:23:20;;;;;;;0.70;0.70;;;;;;;29.11;33.24;99241.96;1659043;86;27508;-58
2022/06/17 11:25:50;;;;;;;1.02;0.40;;;;;;;28.62;32.74;99240.83;1645931;87;25667;-58
2022/06/17 11:28:38;;;;;;;;;;;;;;;27.49;32.99;99231.56;1661659;86;25689;-64
2022/06/17 11:31:12;;;;;;;0.57;0.40;;;;;;;27.35;32.56;99228.30;1659216;86;26741;-57
2022/06/17 11:33:56;;;;;;;2.27;0.42;;;;;;;27.40;32.82;99229.24;1643301;87;25670;-56
2022/06/17 11:36:30;;;;;;;0.68;0.60;;;;;;;27.64;34.20;99230.84;1674559;85;27425;-58
2022/06/17 11:39:18;;;;;;;0.72;0.57;;;;;;;27.15;32.31;99230.27;1674739;85;25711;-57
2022/06/17 11:41:45;;;;;;;1.35;0.75;;;;;;;26.43;34.73;99242.10;1674698;85;25461;-57
2022/06/17 11:44:17;;;;;;;1.55;0.50;;;;;;;26.35;35.11;99236.33;1673031;85;25841;-58
2022/06/17 11:46:53;;;;;;;1.10;0.50;;;;;;;27.12;34.98;99240.13;1674213;85;25916;-57
2022/06/17 11:49:21;;;;;;;1.15;0.50;;;;;;;27.61;32.37;99237.31;1709238;82;27492;-57
2022/06/17 11:51:55;;;;;;;1.87;0.60;;;;;;;27.15;33.20;99237.30;1781801;80;25651;-57
2022/06/17 11:54:48;;;;;;;0.50;0.50;;;;;;;26.67;33.93;99237.38;1781858;80;25683;-59
2022/06/17 11:57:22;;;;;;;2.45;0.60;;;;;;;26.49;34.39;99248.71;1777912;80;25738;-60
2022/06/17 11:59:52;;;;;;;0.72;0.50;;;;;;;26.94;35.38;99236.80;1782109;80;25395;-57
2022/06/17 12:02:19;;;;;;;2.00;0.70;;;;;;;27.34;33.84;99235.12;1782220;80;27368;-57
2022/06/17 12:04:54;;;;;;;4.17;0.70;;;;;;;27.55;32.34;99243.98;1781715;80;25608;-59
2022/06/17 12:07:29;;;;;;;1.17;0.60;;;;;;;27.39;32.45;99242.32;1781897;80;25700;-63
2022/06/17 12:10:13;;;;;;;1.25;0.70;;;;;;;27.77;32.81;99246.63;1782368;80;25748;-59
2022/06/17 12:12:40;;;;;;;1.65;0.82;;;;;;;28.13;33.99;99245.45;1764889;80;25784;-63
2022/06/17 12:15:24;;;;;;;1.05;0.60;;;;;;;28.15;33.83;99248.63;1776205;80;27575;-63